sensor_id;sensor_type;location;lat;lon;timestamp;P1;durP1;ratioP1;P2;durP2;ratioP2
21107;SDS011;10712;52.944;9.098;2022-08-20T00:00:42;1.35;;;1.23;;
21107;SDS011;10712;52.944;9.098;2022-08-20T00:03:18;1.30;;;1.20;;
21107;SDS011;10712;52.944;9.098;2022-08-20T00:06:06;1.83;;;1.58;;
21107;SDS011;10712;52.944;9.098;2022-08-20T00:08:42;2.25;;;2.05;;
21107;SDS011;10712;52.944;9.098;2022-08-20T00:11:10;2.75;;;1.83;;
21107;SDS011;10712;52.944;9.098;2022-08-20T00:13:46;1.95;;;1.80;;
21107;SDS011;10712;52.944;9.098;2022-08-20T00:16:16;2.13;;;1.33;;
21107;SDS011;10712;52.944;9.098;2022-08-20T00:18:45;1.92;;;1.83;;
21107;SDS011;10712;52.944;9.098;2022-08-20T00:21:13;3.00;;;1.70;;
21107;SDS011;10712;52.944;9.098;2022-08-20T00:23:43;1.88;;;1.60;;
21107;SDS011;10712;52.944;9.098;2022-08-20T00:26:13;1.65;;;1.55;;
21107;SDS011;10712;52.944;9.098;2022-08-20T00:28:40;2.05;;;1.85;;
21107;SDS011;10712;52.944;9.098;2022-08-20T00:31:07;1.95;;;1.73;;
21107;SDS011;10712;52.944;9.098;2022-08-20T00:33:36;2.00;;;1.80;;
21107;SDS011;10712;52.944;9.098;2022-08-20T00:36:04;3.83;;;2.30;;
21107;SDS011;10712;52.944;9.098;2022-08-20T00:38:33;1.85;;;1.75;;
21107;SDS011;10712;52.944;9.098;2022-08-20T00:41:02;2.83;;;2.60;;
21107;SDS011;10712;52.944;9.098;2022-08-20T00:46:12;2.20;;;2.05;;
21107;SDS011;10712;52.944;9.098;2022-08-20T00:48:44;1.90;;;1.70;;
21107;SDS011;10712;52.944;9.098;2022-08-20T00:51:22;2.30;;;2.10;;
21107;SDS011;10712;52.944;9.098;2022-08-20T00:54:16;2.33;;;1.70;;
21107;SDS011;10712;52.944;9.098;2022-08-20T00:56:54;2.50;;;1.85;;
21107;SDS011;10712;52.944;9.098;2022-08-20T00:59:25;2.10;;;2.00;;
21107;SDS011;10712;52.944;9.098;2022-08-20T01:01:55;1.90;;;1.80;;
21107;SDS011;10712;52.944;9.098;2022-08-20T01:04:23;1.95;;;1.73;;
21107;SDS011;10712;52.944;9.098;2022-08-20T01:06:51;2.47;;;1.98;;
21107;SDS011;10712;52.944;9.098;2022-08-20T01:09:18;1.33;;;1.23;;
21107;SDS011;10712;52.944;9.098;2022-08-20T01:11:44;3.47;;;2.15;;
21107;SDS011;10712;52.944;9.098;2022-08-20T01:14:11;3.53;;;2.00;;
21107;SDS011;10712;52.944;9.098;2022-08-20T01:17:06;2.63;;;2.42;;
21107;SDS011;10712;52.944;9.098;2022-08-20T01:19:38;2.20;;;2.00;;
21107;SDS011;10712;52.944;9.098;2022-08-20T01:22:11;3.15;;;2.90;;
21107;SDS011;10712;52.944;9.098;2022-08-20T01:25:03;2.65;;;2.45;;
21107;SDS011;10712;52.944;9.098;2022-08-20T01:27:45;2.85;;;2.00;;
21107;SDS011;10712;52.944;9.098;2022-08-20T01:30:13;2.38;;;2.17;;
21107;SDS011;10712;52.944;9.098;2022-08-20T01:32:39;2.83;;;2.60;;
21107;SDS011;10712;52.944;9.098;2022-08-20T01:35:05;1.50;;;1.40;;
21107;SDS011;10712;52.944;9.098;2022-08-20T01:37:33;1.75;;;1.65;;
21107;SDS011;10712;52.944;9.098;2022-08-20T01:39:59;4.00;;;2.75;;
21107;SDS011;10712;52.944;9.098;2022-08-20T01:42:38;4.23;;;2.23;;
21107;SDS011;10712;52.944;9.098;2022-08-20T01:45:12;1.95;;;1.85;;
21107;SDS011;10712;52.944;9.098;2022-08-20T01:47:38;3.63;;;2.40;;
21107;SDS011;10712;52.944;9.098;2022-08-20T01:50:06;5.65;;;2.85;;
21107;SDS011;10712;52.944;9.098;2022-08-20T01:52:49;2.38;;;2.00;;
21107;SDS011;10712;52.944;9.098;2022-08-20T01:55:25;2.92;;;2.72;;
21107;SDS011;10712;52.944;9.098;2022-08-20T01:57:51;2.40;;;2.20;;
21107;SDS011;10712;52.944;9.098;2022-08-20T02:00:18;2.45;;;2.25;;
21107;SDS011;10712;52.944;9.098;2022-08-20T02:02:46;2.33;;;2.20;;
21107;SDS011;10712;52.944;9.098;2022-08-20T02:05:13;3.33;;;2.40;;
21107;SDS011;10712;52.944;9.098;2022-08-20T02:07:39;3.00;;;2.70;;
21107;SDS011;10712;52.944;9.098;2022-08-20T02:10:07;2.47;;;2.08;;
21107;SDS011;10712;52.944;9.098;2022-08-20T02:12:36;2.20;;;2.10;;
21107;SDS011;10712;52.944;9.098;2022-08-20T02:15:05;3.38;;;2.30;;
21107;SDS011;10712;52.944;9.098;2022-08-20T02:17:34;2.75;;;2.55;;
21107;SDS011;10712;52.944;9.098;2022-08-20T02:20:19;3.40;;;2.45;;
21107;SDS011;10712;52.944;9.098;2022-08-20T02:22:55;2.40;;;2.30;;
21107;SDS011;10712;52.944;9.098;2022-08-20T02:25:23;2.97;;;2.65;;
21107;SDS011;10712;52.944;9.098;2022-08-20T02:27:56;4.50;;;3.28;;
21107;SDS011;10712;52.944;9.098;2022-08-20T02:30:31;3.28;;;2.97;;
21107;SDS011;10712;52.944;9.098;2022-08-20T02:33:03;2.83;;;2.60;;
21107;SDS011;10712;52.944;9.098;2022-08-20T02:35:33;3.83;;;2.70;;
21107;SDS011;10712;52.944;9.098;2022-08-20T02:38:01;3.78;;;3.30;;
21107;SDS011;10712;52.944;9.098;2022-08-20T02:40:28;3.53;;;3.22;;
21107;SDS011;10712;52.944;9.098;2022-08-20T02:42:55;3.47;;;3.00;;
21107;SDS011;10712;52.944;9.098;2022-08-20T02:45:23;4.25;;;3.85;;
21107;SDS011;10712;52.944;9.098;2022-08-20T02:47:49;4.38;;;3.95;;
21107;SDS011;10712;52.944;9.098;2022-08-20T02:50:20;8.10;;;4.55;;
21107;SDS011;10712;52.944;9.098;2022-08-20T02:52:48;4.82;;;4.35;;
21107;SDS011;10712;52.944;9.098;2022-08-20T02:55:16;5.53;;;4.53;;
21107;SDS011;10712;52.944;9.098;2022-08-20T02:57:42;5.15;;;4.65;;
21107;SDS011;10712;52.944;9.098;2022-08-20T03:00:10;8.90;;;4.25;;
21107;SDS011;10712;52.944;9.098;2022-08-20T03:02:43;5.10;;;4.70;;
21107;SDS011;10712;52.944;9.098;2022-08-20T03:05:09;8.02;;;5.78;;
21107;SDS011;10712;52.944;9.098;2022-08-20T03:07:44;5.63;;;5.03;;
21107;SDS011;10712;52.944;9.098;2022-08-20T03:10:13;4.78;;;4.38;;
21107;SDS011;10712;52.944;9.098;2022-08-20T03:12:39;4.78;;;4.38;;
21107;SDS011;10712;52.944;9.098;2022-08-20T03:15:06;6.55;;;5.55;;
21107;SDS011;10712;52.944;9.098;2022-08-20T03:17:35;4.90;;;4.25;;
21107;SDS011;10712;52.944;9.098;2022-08-20T03:20:03;3.95;;;3.60;;
21107;SDS011;10712;52.944;9.098;2022-08-20T03:22:31;6.85;;;5.75;;
21107;SDS011;10712;52.944;9.098;2022-08-20T03:24:58;6.22;;;5.47;;
21107;SDS011;10712;52.944;9.098;2022-08-20T03:27:23;3.65;;;3.35;;
21107;SDS011;10712;52.944;9.098;2022-08-20T03:29:49;4.68;;;4.05;;
21107;SDS011;10712;52.944;9.098;2022-08-20T03:32:15;4.25;;;3.67;;
21107;SDS011;10712;52.944;9.098;2022-08-20T03:34:42;7.45;;;5.20;;
21107;SDS011;10712;52.944;9.098;2022-08-20T03:37:08;6.22;;;5.57;;
21107;SDS011;10712;52.944;9.098;2022-08-20T03:39:36;6.70;;;6.10;;
21107;SDS011;10712;52.944;9.098;2022-08-20T03:42:03;8.10;;;6.78;;
21107;SDS011;10712;52.944;9.098;2022-08-20T03:44:29;6.22;;;5.63;;
21107;SDS011;10712;52.944;9.098;2022-08-20T03:46:55;6.10;;;5.45;;
21107;SDS011;10712;52.944;9.098;2022-08-20T03:49:22;6.22;;;5.63;;
21107;SDS011;10712;52.944;9.098;2022-08-20T03:51:48;6.25;;;4.72;;
21107;SDS011;10712;52.944;9.098;2022-08-20T03:54:15;5.50;;;5.00;;
21107;SDS011;10712;52.944;9.098;2022-08-20T03:56:41;5.40;;;4.63;;
21107;SDS011;10712;52.944;9.098;2022-08-20T03:59:07;8.85;;;5.10;;
21107;SDS011;10712;52.944;9.098;2022-08-20T04:01:33;6.05;;;5.45;;
21107;SDS011;10712;52.944;9.098;2022-08-20T04:03:59;8.27;;;6.05;;
21107;SDS011;10712;52.944;9.098;2022-08-20T04:06:25;5.30;;;4.80;;
21107;SDS011;10712;52.944;9.098;2022-08-20T04:08:53;7.22;;;6.00;;
21107;SDS011;10712;52.944;9.098;2022-08-20T04:11:20;8.30;;;7.50;;
21107;SDS011;10712;52.944;9.098;2022-08-20T04:13:46;7.10;;;6.40;;
21107;SDS011;10712;52.944;9.098;2022-08-20T04:16:12;8.43;;;7.63;;
21107;SDS011;10712;52.944;9.098;2022-08-20T04:18:38;9.05;;;7.15;;
21107;SDS011;10712;52.944;9.098;2022-08-20T04:21:04;7.35;;;6.65;;
21107;SDS011;10712;52.944;9.098;2022-08-20T04:23:30;7.82;;;6.97;;
21107;SDS011;10712;52.944;9.098;2022-08-20T04:25:56;6.70;;;6.05;;
21107;SDS011;10712;52.944;9.098;2022-08-20T04:28:22;8.10;;;7.30;;
21107;SDS011;10712;52.944;9.098;2022-08-20T04:30:51;8.23;;;7.43;;
21107;SDS011;10712;52.944;9.098;2022-08-20T04:33:25;4.68;;;4.13;;
21107;SDS011;10712;52.944;9.098;2022-08-20T04:35:53;7.40;;;6.72;;
21107;SDS011;10712;52.944;9.098;2022-08-20T04:38:23;7.72;;;5.28;;
21107;SDS011;10712;52.944;9.098;2022-08-20T04:40:50;5.18;;;4.68;;
21107;SDS011;10712;52.944;9.098;2022-08-20T04:45:51;4.72;;;4.22;;
21107;SDS011;10712;52.944;9.098;2022-08-20T04:48:19;4.78;;;4.30;;
21107;SDS011;10712;52.944;9.098;2022-08-20T04:50:48;7.57;;;6.78;;
21107;SDS011;10712;52.944;9.098;2022-08-20T04:53:16;7.60;;;6.82;;
21107;SDS011;10712;52.944;9.098;2022-08-20T04:55:45;8.65;;;7.43;;
21107;SDS011;10712;52.944;9.098;2022-08-20T04:58:13;9.77;;;8.68;;
21107;SDS011;10712;52.944;9.098;2022-08-20T05:01:06;7.80;;;6.47;;
21107;SDS011;10712;52.944;9.098;2022-08-20T05:03:36;9.03;;;7.73;;
21107;SDS011;10712;52.944;9.098;2022-08-20T05:06:04;7.30;;;6.63;;
21107;SDS011;10712;52.944;9.098;2022-08-20T05:08:32;14.43;;;10.02;;
21107;SDS011;10712;52.944;9.098;2022-08-20T05:11:00;8.13;;;7.28;;
21107;SDS011;10712;52.944;9.098;2022-08-20T05:13:26;8.10;;;7.30;;
21107;SDS011;10712;52.944;9.098;2022-08-20T05:15:53;10.50;;;9.30;;
21107;SDS011;10712;52.944;9.098;2022-08-20T05:18:22;10.10;;;7.70;;
21107;SDS011;10712;52.944;9.098;2022-08-20T05:20:50;7.10;;;6.22;;
21107;SDS011;10712;52.944;9.098;2022-08-20T05:23:18;7.30;;;6.18;;
21107;SDS011;10712;52.944;9.098;2022-08-20T05:25:46;11.23;;;9.80;;
21107;SDS011;10712;52.944;9.098;2022-08-20T05:28:18;10.20;;;9.15;;
21107;SDS011;10712;52.944;9.098;2022-08-20T05:30:52;10.85;;;9.77;;
21107;SDS011;10712;52.944;9.098;2022-08-20T05:33:19;9.88;;;8.77;;
21107;SDS011;10712;52.944;9.098;2022-08-20T05:35:48;10.27;;;9.38;;
21107;SDS011;10712;52.944;9.098;2022-08-20T05:38:17;8.27;;;7.57;;
21107;SDS011;10712;52.944;9.098;2022-08-20T05:40:48;11.40;;;10.23;;
21107;SDS011;10712;52.944;9.098;2022-08-20T05:43:15;9.02;;;8.13;;
21107;SDS011;10712;52.944;9.098;2022-08-20T05:45:42;8.07;;;7.28;;
21107;SDS011;10712;52.944;9.098;2022-08-20T05:48:11;7.45;;;6.15;;
21107;SDS011;10712;52.944;9.098;2022-08-20T05:50:43;10.93;;;9.35;;
21107;SDS011;10712;52.944;9.098;2022-08-20T05:53:13;8.00;;;7.20;;
21107;SDS011;10712;52.944;9.098;2022-08-20T05:55:40;7.93;;;7.13;;
21107;SDS011;10712;52.944;9.098;2022-08-20T05:58:08;7.85;;;6.93;;
21107;SDS011;10712;52.944;9.098;2022-08-20T06:00:45;7.10;;;6.40;;
21107;SDS011;10712;52.944;9.098;2022-08-20T06:03:12;6.00;;;5.50;;
21107;SDS011;10712;52.944;9.098;2022-08-20T06:05:57;6.75;;;6.15;;
21107;SDS011;10712;52.944;9.098;2022-08-20T06:08:23;8.10;;;7.30;;
21107;SDS011;10712;52.944;9.098;2022-08-20T06:10:49;10.30;;;9.25;;
21107;SDS011;10712;52.944;9.098;2022-08-20T06:13:15;7.47;;;6.78;;
21107;SDS011;10712;52.944;9.098;2022-08-20T06:15:41;8.88;;;8.02;;
21107;SDS011;10712;52.944;9.098;2022-08-20T06:18:07;7.35;;;6.38;;
21107;SDS011;10712;52.944;9.098;2022-08-20T06:20:34;10.23;;;9.13;;
21107;SDS011;10712;52.944;9.098;2022-08-20T06:23:02;8.15;;;7.45;;
21107;SDS011;10712;52.944;9.098;2022-08-20T06:25:30;9.02;;;8.20;;
21107;SDS011;10712;52.944;9.098;2022-08-20T06:27:59;9.55;;;7.97;;
21107;SDS011;10712;52.944;9.098;2022-08-20T06:30:27;7.20;;;6.28;;
21107;SDS011;10712;52.944;9.098;2022-08-20T06:32:53;8.15;;;7.43;;
21107;SDS011;10712;52.944;9.098;2022-08-20T06:35:19;9.57;;;8.63;;
21107;SDS011;10712;52.944;9.098;2022-08-20T06:37:45;9.00;;;8.10;;
21107;SDS011;10712;52.944;9.098;2022-08-20T06:40:14;8.30;;;7.50;;
21107;SDS011;10712;52.944;9.098;2022-08-20T06:42:43;6.15;;;5.32;;
21107;SDS011;10712;52.944;9.098;2022-08-20T06:45:11;6.90;;;6.28;;
21107;SDS011;10712;52.944;9.098;2022-08-20T06:47:41;6.22;;;5.55;;
21107;SDS011;10712;52.944;9.098;2022-08-20T06:50:09;7.88;;;6.97;;
21107;SDS011;10712;52.944;9.098;2022-08-20T06:52:40;10.55;;;8.00;;
21107;SDS011;10712;52.944;9.098;2022-08-20T06:55:07;11.57;;;8.82;;
21107;SDS011;10712;52.944;9.098;2022-08-20T06:57:36;7.78;;;6.97;;
21107;SDS011;10712;52.944;9.098;2022-08-20T07:00:07;9.35;;;7.88;;
21107;SDS011;10712;52.944;9.098;2022-08-20T07:02:40;7.50;;;6.72;;
21107;SDS011;10712;52.944;9.098;2022-08-20T07:05:07;11.38;;;9.80;;
21107;SDS011;10712;52.944;9.098;2022-08-20T07:07:34;14.48;;;12.75;;
21107;SDS011;10712;52.944;9.098;2022-08-20T07:10:05;13.98;;;12.40;;
21107;SDS011;10712;52.944;9.098;2022-08-20T07:12:34;14.55;;;12.70;;
21107;SDS011;10712;52.944;9.098;2022-08-20T07:15:07;15.93;;;13.48;;
21107;SDS011;10712;52.944;9.098;2022-08-20T07:17:36;13.48;;;12.07;;
21107;SDS011;10712;52.944;9.098;2022-08-20T07:20:06;16.33;;;14.63;;
21107;SDS011;10712;52.944;9.098;2022-08-20T07:22:37;14.32;;;12.82;;
21107;SDS011;10712;52.944;9.098;2022-08-20T07:25:03;17.65;;;15.45;;
21107;SDS011;10712;52.944;9.098;2022-08-20T07:27:32;13.98;;;12.60;;
21107;SDS011;10712;52.944;9.098;2022-08-20T07:29:59;14.70;;;13.20;;
21107;SDS011;10712;52.944;9.098;2022-08-20T07:32:45;16.40;;;14.70;;
21107;SDS011;10712;52.944;9.098;2022-08-20T07:35:12;13.60;;;11.48;;
21107;SDS011;10712;52.944;9.098;2022-08-20T07:37:43;34.92;;;29.50;;
21107;SDS011;10712;52.944;9.098;2022-08-20T07:40:14;17.70;;;14.68;;
21107;SDS011;10712;52.944;9.098;2022-08-20T07:42:47;13.15;;;10.82;;
21107;SDS011;10712;52.944;9.098;2022-08-20T07:45:15;12.95;;;11.63;;
21107;SDS011;10712;52.944;9.098;2022-08-20T07:47:45;11.35;;;10.18;;
21107;SDS011;10712;52.944;9.098;2022-08-20T07:50:14;11.10;;;9.93;;
21107;SDS011;10712;52.944;9.098;2022-08-20T07:52:44;10.63;;;9.55;;
21107;SDS011;10712;52.944;9.098;2022-08-20T07:55:11;10.27;;;9.27;;
21107;SDS011;10712;52.944;9.098;2022-08-20T07:57:40;12.35;;;10.57;;
21107;SDS011;10712;52.944;9.098;2022-08-20T08:00:10;12.38;;;10.30;;
21107;SDS011;10712;52.944;9.098;2022-08-20T08:02:37;11.10;;;9.63;;
21107;SDS011;10712;52.944;9.098;2022-08-20T08:05:04;9.75;;;8.65;;
21107;SDS011;10712;52.944;9.098;2022-08-20T08:07:31;10.43;;;9.00;;
21107;SDS011;10712;52.944;9.098;2022-08-20T08:09:59;8.35;;;7.55;;
21107;SDS011;10712;52.944;9.098;2022-08-20T08:12:41;9.18;;;7.75;;
21107;SDS011;10712;52.944;9.098;2022-08-20T08:15:16;7.82;;;7.05;;
21107;SDS011;10712;52.944;9.098;2022-08-20T08:18:09;6.78;;;6.10;;
21107;SDS011;10712;52.944;9.098;2022-08-20T08:20:42;10.20;;;6.35;;
21107;SDS011;10712;52.944;9.098;2022-08-20T08:23:09;8.10;;;6.47;;
21107;SDS011;10712;52.944;9.098;2022-08-20T08:25:39;8.77;;;6.60;;
21107;SDS011;10712;52.944;9.098;2022-08-20T08:28:08;7.38;;;6.63;;
21107;SDS011;10712;52.944;9.098;2022-08-20T08:30:36;20.88;;;6.60;;
21107;SDS011;10712;52.944;9.098;2022-08-20T08:33:12;7.57;;;5.53;;
21107;SDS011;10712;52.944;9.098;2022-08-20T08:35:51;5.80;;;4.47;;
21107;SDS011;10712;52.944;9.098;2022-08-20T08:38:20;6.90;;;6.20;;
21107;SDS011;10712;52.944;9.098;2022-08-20T08:40:50;8.07;;;5.25;;
21107;SDS011;10712;52.944;9.098;2022-08-20T08:43:20;6.43;;;5.60;;
21107;SDS011;10712;52.944;9.098;2022-08-20T08:45:57;5.70;;;5.20;;
21107;SDS011;10712;52.944;9.098;2022-08-20T08:48:41;6.77;;;5.13;;
21107;SDS011;10712;52.944;9.098;2022-08-20T08:51:14;7.25;;;3.97;;
21107;SDS011;10712;52.944;9.098;2022-08-20T08:53:48;5.80;;;4.85;;
21107;SDS011;10712;52.944;9.098;2022-08-20T08:56:24;5.03;;;4.05;;
21107;SDS011;10712;52.944;9.098;2022-08-20T08:58:58;6.10;;;4.70;;
21107;SDS011;10712;52.944;9.098;2022-08-20T09:01:34;6.75;;;5.07;;
21107;SDS011;10712;52.944;9.098;2022-08-20T09:04:10;4.30;;;3.70;;
21107;SDS011;10712;52.944;9.098;2022-08-20T09:06:38;4.88;;;3.55;;
21107;SDS011;10712;52.944;9.098;2022-08-20T09:09:09;6.95;;;4.32;;
21107;SDS011;10712;52.944;9.098;2022-08-20T09:11:56;5.90;;;3.13;;
21107;SDS011;10712;52.944;9.098;2022-08-20T09:14:48;5.30;;;3.33;;
21107;SDS011;10712;52.944;9.098;2022-08-20T09:17:16;4.43;;;3.08;;
21107;SDS011;10712;52.944;9.098;2022-08-20T09:19:45;3.50;;;2.85;;
21107;SDS011;10712;52.944;9.098;2022-08-20T09:22:17;6.93;;;3.90;;
21107;SDS011;10712;52.944;9.098;2022-08-20T09:24:49;7.68;;;3.58;;
21107;SDS011;10712;52.944;9.098;2022-08-20T09:27:15;3.63;;;3.33;;
21107;SDS011;10712;52.944;9.098;2022-08-20T09:29:42;3.92;;;3.45;;
21107;SDS011;10712;52.944;9.098;2022-08-20T09:34:44;5.82;;;3.33;;
21107;SDS011;10712;52.944;9.098;2022-08-20T09:37:16;5.07;;;3.75;;
21107;SDS011;10712;52.944;9.098;2022-08-20T09:39:42;5.47;;;3.35;;
21107;SDS011;10712;52.944;9.098;2022-08-20T09:42:09;4.03;;;3.72;;
21107;SDS011;10712;52.944;9.098;2022-08-20T09:44:43;7.03;;;3.67;;
21107;SDS011;10712;52.944;9.098;2022-08-20T09:47:09;7.00;;;4.30;;
21107;SDS011;10712;52.944;9.098;2022-08-20T09:49:35;8.70;;;4.35;;
21107;SDS011;10712;52.944;9.098;2022-08-20T09:52:02;7.00;;;4.82;;
21107;SDS011;10712;52.944;9.098;2022-08-20T09:54:32;4.60;;;3.30;;
21107;SDS011;10712;52.944;9.098;2022-08-20T09:57:01;3.78;;;3.00;;
21107;SDS011;10712;52.944;9.098;2022-08-20T09:59:31;3.20;;;2.90;;
21107;SDS011;10712;52.944;9.098;2022-08-20T10:01:59;5.40;;;3.00;;
21107;SDS011;10712;52.944;9.098;2022-08-20T10:04:25;7.65;;;3.45;;
21107;SDS011;10712;52.944;9.098;2022-08-20T10:06:51;6.82;;;4.40;;
21107;SDS011;10712;52.944;9.098;2022-08-20T10:09:17;9.55;;;3.90;;
21107;SDS011;10712;52.944;9.098;2022-08-20T10:11:43;4.43;;;3.33;;
21107;SDS011;10712;52.944;9.098;2022-08-20T10:14:09;5.05;;;3.13;;
21107;SDS011;10712;52.944;9.098;2022-08-20T10:16:35;14.07;;;4.05;;
21107;SDS011;10712;52.944;9.098;2022-08-20T10:19:02;8.05;;;3.70;;
21107;SDS011;10712;52.944;9.098;2022-08-20T10:21:30;7.55;;;3.03;;
21107;SDS011;10712;52.944;9.098;2022-08-20T10:23:56;6.20;;;3.20;;
21107;SDS011;10712;52.944;9.098;2022-08-20T10:26:23;4.38;;;2.92;;
21107;SDS011;10712;52.944;9.098;2022-08-20T10:28:50;4.80;;;3.15;;
21107;SDS011;10712;52.944;9.098;2022-08-20T10:31:16;4.65;;;3.38;;
21107;SDS011;10712;52.944;9.098;2022-08-20T10:33:42;9.40;;;3.50;;
21107;SDS011;10712;52.944;9.098;2022-08-20T10:36:14;10.88;;;4.20;;
21107;SDS011;10712;52.944;9.098;2022-08-20T10:38:42;7.22;;;3.40;;
21107;SDS011;10712;52.944;9.098;2022-08-20T10:41:09;6.13;;;3.35;;
21107;SDS011;10712;52.944;9.098;2022-08-20T10:43:35;6.30;;;3.22;;
21107;SDS011;10712;52.944;9.098;2022-08-20T10:46:01;10.68;;;3.85;;
21107;SDS011;10712;52.944;9.098;2022-08-20T10:48:27;8.02;;;3.10;;
21107;SDS011;10712;52.944;9.098;2022-08-20T10:50:53;9.40;;;3.60;;
21107;SDS011;10712;52.944;9.098;2022-08-20T10:53:19;7.88;;;3.60;;
21107;SDS011;10712;52.944;9.098;2022-08-20T10:55:45;8.95;;;4.57;;
21107;SDS011;10712;52.944;9.098;2022-08-20T10:58:11;6.10;;;3.83;;
21107;SDS011;10712;52.944;9.098;2022-08-20T11:00:38;4.47;;;3.60;;
21107;SDS011;10712;52.944;9.098;2022-08-20T11:03:05;8.50;;;3.30;;
21107;SDS011;10712;52.944;9.098;2022-08-20T11:05:31;7.93;;;3.38;;
21107;SDS011;10712;52.944;9.098;2022-08-20T11:07:57;8.77;;;2.85;;
21107;SDS011;10712;52.944;9.098;2022-08-20T11:10:28;8.90;;;3.17;;
21107;SDS011;10712;52.944;9.098;2022-08-20T11:12:58;9.52;;;2.72;;
21107;SDS011;10712;52.944;9.098;2022-08-20T11:15:25;5.35;;;2.38;;
21107;SDS011;10712;52.944;9.098;2022-08-20T11:17:52;6.20;;;2.50;;
21107;SDS011;10712;52.944;9.098;2022-08-20T11:20:19;8.55;;;2.65;;
21107;SDS011;10712;52.944;9.098;2022-08-20T11:22:50;6.30;;;2.28;;
21107;SDS011;10712;52.944;9.098;2022-08-20T11:25:17;8.98;;;2.33;;
21107;SDS011;10712;52.944;9.098;2022-08-20T11:27:45;7.68;;;2.30;;
21107;SDS011;10712;52.944;9.098;2022-08-20T11:30:16;3.97;;;2.15;;
21107;SDS011;10712;52.944;9.098;2022-08-20T11:32:53;4.82;;;1.45;;
21107;SDS011;10712;52.944;9.098;2022-08-20T11:35:19;4.90;;;1.88;;
21107;SDS011;10712;52.944;9.098;2022-08-20T11:37:48;4.40;;;1.55;;
21107;SDS011;10712;52.944;9.098;2022-08-20T11:40:15;7.55;;;2.35;;
21107;SDS011;10712;52.944;9.098;2022-08-20T11:42:41;4.38;;;2.13;;
21107;SDS011;10712;52.944;9.098;2022-08-20T11:45:07;4.95;;;1.60;;
21107;SDS011;10712;52.944;9.098;2022-08-20T11:47:34;2.70;;;1.13;;
21107;SDS011;10712;52.944;9.098;2022-08-20T11:52:39;5.45;;;1.70;;
21107;SDS011;10712;52.944;9.098;2022-08-20T11:55:05;6.00;;;1.70;;
21107;SDS011;10712;52.944;9.098;2022-08-20T11:57:36;5.47;;;2.13;;
21107;SDS011;10712;52.944;9.098;2022-08-20T12:00:08;7.90;;;1.90;;
21107;SDS011;10712;52.944;9.098;2022-08-20T12:02:40;4.32;;;1.50;;
21107;SDS011;10712;52.944;9.098;2022-08-20T12:05:07;7.20;;;1.88;;
21107;SDS011;10712;52.944;9.098;2022-08-20T12:07:35;5.60;;;1.50;;
21107;SDS011;10712;52.944;9.098;2022-08-20T12:10:02;5.93;;;2.15;;
21107;SDS011;10712;52.944;9.098;2022-08-20T12:12:30;5.97;;;1.40;;
21107;SDS011;10712;52.944;9.098;2022-08-20T12:14:57;7.38;;;1.67;;
21107;SDS011;10712;52.944;9.098;2022-08-20T12:17:24;4.45;;;1.33;;
21107;SDS011;10712;52.944;9.098;2022-08-20T12:19:54;3.90;;;1.30;;
21107;SDS011;10712;52.944;9.098;2022-08-20T12:22:23;4.15;;;1.33;;
21107;SDS011;10712;52.944;9.098;2022-08-20T12:24:49;5.90;;;1.40;;
21107;SDS011;10712;52.944;9.098;2022-08-20T12:27:21;3.60;;;1.40;;
21107;SDS011;10712;52.944;9.098;2022-08-20T12:29:54;7.07;;;1.55;;
21107;SDS011;10712;52.944;9.098;2022-08-20T12:32:24;6.57;;;1.50;;
21107;SDS011;10712;52.944;9.098;2022-08-20T12:34:53;3.97;;;1.38;;
21107;SDS011;10712;52.944;9.098;2022-08-20T12:37:20;6.22;;;1.95;;
21107;SDS011;10712;52.944;9.098;2022-08-20T12:39:50;4.07;;;1.10;;
21107;SDS011;10712;52.944;9.098;2022-08-20T12:42:20;4.57;;;1.30;;
21107;SDS011;10712;52.944;9.098;2022-08-20T12:44:46;2.83;;;1.00;;
21107;SDS011;10712;52.944;9.098;2022-08-20T12:47:14;8.68;;;1.73;;
21107;SDS011;10712;52.944;9.098;2022-08-20T12:49:51;4.97;;;1.15;;
21107;SDS011;10712;52.944;9.098;2022-08-20T12:52:22;4.32;;;1.30;;
21107;SDS011;10712;52.944;9.098;2022-08-20T12:54:49;4.88;;;0.90;;
21107;SDS011;10712;52.944;9.098;2022-08-20T13:00:03;4.13;;;1.42;;
21107;SDS011;10712;52.944;9.098;2022-08-20T13:02:36;5.60;;;1.25;;
21107;SDS011;10712;52.944;9.098;2022-08-20T13:05:05;10.75;;;1.70;;
21107;SDS011;10712;52.944;9.098;2022-08-20T13:07:36;6.60;;;1.67;;
21107;SDS011;10712;52.944;9.098;2022-08-20T13:10:02;5.95;;;1.27;;
21107;SDS011;10712;52.944;9.098;2022-08-20T13:12:30;4.97;;;1.77;;
21107;SDS011;10712;52.944;9.098;2022-08-20T13:14:56;4.82;;;1.40;;
21107;SDS011;10712;52.944;9.098;2022-08-20T13:17:22;6.25;;;1.73;;
21107;SDS011;10712;52.944;9.098;2022-08-20T13:19:47;5.95;;;1.50;;
21107;SDS011;10712;52.944;9.098;2022-08-20T13:22:14;4.85;;;2.17;;
21107;SDS011;10712;52.944;9.098;2022-08-20T13:24:41;7.72;;;1.58;;
21107;SDS011;10712;52.944;9.098;2022-08-20T13:27:07;6.43;;;1.60;;
21107;SDS011;10712;52.944;9.098;2022-08-20T13:29:47;5.03;;;1.58;;
21107;SDS011;10712;52.944;9.098;2022-08-20T13:32:15;7.95;;;2.00;;
21107;SDS011;10712;52.944;9.098;2022-08-20T13:34:42;5.53;;;1.67;;
21107;SDS011;10712;52.944;9.098;2022-08-20T13:37:12;4.22;;;1.50;;
21107;SDS011;10712;52.944;9.098;2022-08-20T13:39:45;3.60;;;1.77;;
21107;SDS011;10712;52.944;9.098;2022-08-20T13:42:11;3.83;;;1.63;;
21107;SDS011;10712;52.944;9.098;2022-08-20T13:44:38;8.15;;;1.88;;
21107;SDS011;10712;52.944;9.098;2022-08-20T13:47:14;6.00;;;1.73;;
21107;SDS011;10712;52.944;9.098;2022-08-20T13:49:53;2.97;;;1.20;;
21107;SDS011;10712;52.944;9.098;2022-08-20T13:52:27;4.38;;;1.33;;
21107;SDS011;10712;52.944;9.098;2022-08-20T13:54:53;4.25;;;1.27;;
21107;SDS011;10712;52.944;9.098;2022-08-20T13:57:19;11.82;;;1.20;;
21107;SDS011;10712;52.944;9.098;2022-08-20T13:59:48;7.32;;;2.15;;
21107;SDS011;10712;52.944;9.098;2022-08-20T14:02:17;4.50;;;1.50;;
21107;SDS011;10712;52.944;9.098;2022-08-20T14:04:44;6.40;;;1.38;;
21107;SDS011;10712;52.944;9.098;2022-08-20T14:07:17;3.60;;;1.15;;
21107;SDS011;10712;52.944;9.098;2022-08-20T14:09:56;1.58;;;0.82;;
21107;SDS011;10712;52.944;9.098;2022-08-20T14:12:30;4.57;;;1.27;;
21107;SDS011;10712;52.944;9.098;2022-08-20T14:14:56;6.28;;;1.42;;
21107;SDS011;10712;52.944;9.098;2022-08-20T14:17:23;4.13;;;1.30;;
21107;SDS011;10712;52.944;9.098;2022-08-20T14:20:01;6.32;;;1.52;;
21107;SDS011;10712;52.944;9.098;2022-08-20T14:22:40;5.18;;;1.42;;
21107;SDS011;10712;52.944;9.098;2022-08-20T14:25:08;6.57;;;1.85;;
21107;SDS011;10712;52.944;9.098;2022-08-20T14:27:36;3.60;;;0.88;;
21107;SDS011;10712;52.944;9.098;2022-08-20T14:30:05;6.53;;;0.95;;
21107;SDS011;10712;52.944;9.098;2022-08-20T14:32:35;6.15;;;1.55;;
21107;SDS011;10712;52.944;9.098;2022-08-20T14:35:01;5.00;;;1.23;;
21107;SDS011;10712;52.944;9.098;2022-08-20T14:37:29;6.47;;;1.35;;
21107;SDS011;10712;52.944;9.098;2022-08-20T14:40:00;6.30;;;1.27;;
21107;SDS011;10712;52.944;9.098;2022-08-20T14:42:28;8.18;;;1.65;;
21107;SDS011;10712;52.944;9.098;2022-08-20T14:44:55;4.60;;;1.23;;
21107;SDS011;10712;52.944;9.098;2022-08-20T14:47:29;6.40;;;1.10;;
21107;SDS011;10712;52.944;9.098;2022-08-20T14:50:10;2.85;;;0.90;;
21107;SDS011;10712;52.944;9.098;2022-08-20T14:52:41;5.30;;;1.25;;
21107;SDS011;10712;52.944;9.098;2022-08-20T14:55:09;4.47;;;1.17;;
21107;SDS011;10712;52.944;9.098;2022-08-20T14:57:40;6.75;;;1.50;;
21107;SDS011;10712;52.944;9.098;2022-08-20T15:00:08;4.32;;;0.90;;
21107;SDS011;10712;52.944;9.098;2022-08-20T15:02:40;8.43;;;1.23;;
21107;SDS011;10712;52.944;9.098;2022-08-20T15:05:06;4.22;;;0.98;;
21107;SDS011;10712;52.944;9.098;2022-08-20T15:07:34;5.43;;;0.90;;
21107;SDS011;10712;52.944;9.098;2022-08-20T15:10:06;4.72;;;1.00;;
21107;SDS011;10712;52.944;9.098;2022-08-20T15:12:37;3.13;;;0.90;;